Raritan, Illinois
Current Conditions -  °F | °C
As of 8:15 PM on Sunday 25 Jan 2015 (Local Time) from KMQB Reporting Station
Scattered Clouds Scattered Clouds  
Wind Chill: 17°   Ceiling: Unl
Heat Index: 27°   Visibility: 10mi
Dew Point: 20°   Wind: 9mph
Humidity: 77%   Direction: 20°NNE
Pressure: 30.04"   Gusts: 18mph
Location:  40.7°N, 90.83°W
Report Text: KMQB 260215Z AUTO 02008G16KT 10SM SCT050 M03/M06 A3004 RMK AO2 T10301065
Loading
Personal Weather Stations






























Interactive Weather Map New forecast layout! Learn more

10-Day Weather Forecast

Advertisements
Track Severe Weather on mobile